createdAt,value
2018-09-19T09:36:36.073Z,64.90
2018-09-19T09:39:04.600Z,69.10
2018-09-19T09:41:32.114Z,68.00
2018-09-19T09:43:59.704Z,66.80
2018-09-19T09:46:27.180Z,65.90
2018-09-19T09:48:54.724Z,66.20
2018-09-19T09:51:22.271Z,65.80
2018-09-19T09:53:49.815Z,65.40
2018-09-19T09:56:17.332Z,65.60
2018-09-19T09:58:44.881Z,65.60
2018-09-19T10:01:12.451Z,65.30
2018-09-19T10:03:39.967Z,65.50
2018-09-19T10:06:07.524Z,65.30
2018-09-19T10:08:35.119Z,65.90
2018-09-19T10:11:02.651Z,65.90
2018-09-19T10:13:30.171Z,66.10
2018-09-19T10:15:57.714Z,66.00
2018-09-19T10:18:25.265Z,66.00
2018-09-19T10:20:52.804Z,66.00
2018-09-19T10:23:20.324Z,66.00
2018-09-19T10:25:47.853Z,65.60
2018-09-19T10:28:15.371Z,65.80
2018-09-19T10:30:42.906Z,66.20
2018-09-19T10:33:10.452Z,66.00
2018-09-19T10:35:37.972Z,65.70
2018-09-19T10:38:05.524Z,65.30
2018-09-19T10:40:33.044Z,65.40
2018-09-19T10:43:00.647Z,65.40
2018-09-19T10:45:28.165Z,65.30
2018-09-19T10:47:55.763Z,64.90
2018-09-19T10:50:23.280Z,65.10
2018-09-19T10:52:50.800Z,65.10
2018-09-19T10:55:18.333Z,65.10
2018-09-19T10:57:45.854Z,65.10
2018-09-19T11:00:13.466Z,65.30
2018-09-19T11:02:41.039Z,64.80
2018-09-19T11:05:08.567Z,64.80
2018-09-19T11:07:36.103Z,64.70
2018-09-19T11:10:03.624Z,64.70
2018-09-19T11:12:31.157Z,65.10
2018-09-19T11:14:58.851Z,65.10
2018-09-19T11:17:26.389Z,64.70
2018-09-19T11:19:53.930Z,64.80
2018-09-19T11:22:21.485Z,64.60
2018-09-19T11:24:49.135Z,64.40
2018-09-19T11:27:16.691Z,64.60
2018-09-19T11:29:44.237Z,64.50
2018-09-19T11:32:11.752Z,64.70
2018-09-19T11:34:39.644Z,64.50
2018-09-19T11:37:07.292Z,64.30
2018-09-19T11:39:34.818Z,64.20
2018-09-19T11:42:02.344Z,64.10
2018-09-19T11:44:29.864Z,64.00
2018-09-19T11:46:57.393Z,64.00
2018-09-19T11:49:24.921Z,63.80
2018-09-19T11:51:52.449Z,63.80
2018-09-19T11:54:19.973Z,63.80
2018-09-19T11:56:47.511Z,63.60
2018-09-19T11:59:15.040Z,63.30
2018-09-19T12:01:42.637Z,63.30
2018-09-19T12:04:10.192Z,63.10
2018-09-19T12:06:37.717Z,63.00
2018-09-19T12:09:07.659Z,63.00
2018-09-19T12:11:35.184Z,62.90
2018-09-19T12:14:02.732Z,62.60
2018-09-19T12:16:30.264Z,62.40
2018-09-19T12:18:57.797Z,62.40
2018-09-19T12:21:25.328Z,62.30
2018-09-19T12:23:52.844Z,62.20
2018-09-19T12:26:20.385Z,61.90
2018-09-19T12:28:47.908Z,61.50
2018-09-19T12:31:15.450Z,61.30
2018-09-19T12:33:42.968Z,61.50
2018-09-19T12:36:10.510Z,60.90
2018-09-19T12:38:38.059Z,60.80
2018-09-19T12:41:05.961Z,61.00
2018-09-19T12:43:33.480Z,61.20
2018-09-19T12:46:01.025Z,61.10
2018-09-19T12:48:28.560Z,61.00
2018-09-19T12:50:56.117Z,60.60
2018-09-19T12:53:24.305Z,60.70
2018-09-19T12:55:52.572Z,60.40
2018-09-19T12:58:20.229Z,61.10
2018-09-19T13:00:47.785Z,60.30
2018-09-19T13:03:15.300Z,60.40
2018-09-19T13:05:42.873Z,59.70
2018-09-19T13:08:10.421Z,60.10
2018-09-19T13:10:37.966Z,59.80
2018-09-19T13:13:05.480Z,60.10
2018-09-19T13:15:32.993Z,60.00
2018-09-19T13:18:00.560Z,60.00
2018-09-19T13:20:28.074Z,59.40
2018-09-19T13:22:55.634Z,59.20
2018-09-19T13:25:23.147Z,59.30
2018-09-19T13:27:50.682Z,59.10
2018-09-19T13:30:18.345Z,58.50
2018-09-19T13:32:45.934Z,58.30
2018-09-19T13:35:13.515Z,58.30
2018-09-19T13:37:41.054Z,58.30
2018-09-19T13:40:08.577Z,58.50
2018-09-19T13:42:36.160Z,58.60
2018-09-19T13:45:03.822Z,58.60
2018-09-19T13:47:31.415Z,58.70
2018-09-19T13:50:01.432Z,57.70
2018-09-19T13:52:28.981Z,57.40
2018-09-19T13:57:36.867Z,57.70
2018-09-19T14:00:04.720Z,57.30
2018-09-19T14:02:32.297Z,57.20
2018-09-19T14:04:59.850Z,57.30
2018-09-19T14:07:27.442Z,56.90
2018-09-19T14:09:54.997Z,56.80
2018-09-19T14:12:22.614Z,56.90
2018-09-19T14:14:50.112Z,56.80
2018-09-19T14:17:18.617Z,57.00
2018-09-19T14:19:46.212Z,56.70
2018-09-19T14:22:13.795Z,56.40
2018-09-19T14:24:41.328Z,56.80
2018-09-19T14:27:09.017Z,56.90
2018-09-19T14:29:36.577Z,57.20
2018-09-19T14:32:04.139Z,57.10
2018-09-19T14:34:31.665Z,57.30
2018-09-19T14:36:59.236Z,57.40
2018-09-19T14:39:26.761Z,57.40
2018-09-19T14:41:54.345Z,57.50
2018-09-19T14:44:21.865Z,57.70
2018-09-19T14:46:49.472Z,57.50
2018-09-19T14:49:16.985Z,57.60
2018-09-19T14:51:44.544Z,57.40
2018-09-19T14:54:12.096Z,57.60
2018-09-19T14:56:39.627Z,58.20
2018-09-19T14:59:07.145Z,57.90
2018-09-19T15:01:34.668Z,57.90
2018-09-19T15:04:02.196Z,58.00
2018-09-19T15:06:29.737Z,58.10
2018-09-19T15:08:57.270Z,57.90
2018-09-19T15:11:25.432Z,58.20
2018-09-19T15:13:52.972Z,58.20
2018-09-19T15:16:20.489Z,58.30
2018-09-19T15:18:48.032Z,58.30
2018-09-19T15:21:15.547Z,58.10
2018-09-19T15:23:43.079Z,58.40
2018-09-19T15:26:10.599Z,58.20
2018-09-19T15:28:38.195Z,58.30
2018-09-19T15:31:05.690Z,58.40
2018-09-19T15:33:33.276Z,58.50
2018-09-19T15:36:00.809Z,58.60
2018-09-19T15:38:28.378Z,58.70
2018-09-19T15:40:56.025Z,58.50
2018-09-19T15:43:23.562Z,58.20
2018-09-19T15:45:51.149Z,58.20
2018-09-19T15:48:19.100Z,58.20
2018-09-19T15:50:47.909Z,57.90
2018-09-19T15:53:16.106Z,57.90
2018-09-19T15:55:46.162Z,57.80
2018-09-19T15:58:13.762Z,57.50
2018-09-19T16:00:41.312Z,57.60
